Diamond City, Arkansas
Current Conditions -  °F | °C
As of 12:35 AM on Monday 24 Nov 2014 (Local Time) from KBBG Reporting Station
Light Rain Light Rain  
Wind Chill: 33°   Ceiling: Unl
Heat Index: 41°   Visibility: 10mi
Dew Point: 39°   Wind: 16mph
Humidity: 93%   Direction: 300°WNW
Pressure: 29.52"   Gusts: 26mph
Location:  36.46°N, 92.92°W
Report Text: KBBG 240635Z AUTO 30014G23KT 10SM -RA FEW015 SCT021 SCT026 05/04 A2952 RMK AO2
Loading
Personal Weather Stations






























Interactive Weather Map New forecast layout! Learn more

10-Day Weather Forecast

Advertisements
Track Severe Weather on mobile